Latest Weather Observations for Busselton Airport

IDW60801

Issued at 3:35 pm WST Sunday 21 September 2014 (issued every 30 minutes, with the page automatically refreshed every 10 minutes)

About weather observations | Map of weather stations | Latest weather observations for WA | Other Formats
Station Details ID: 009603 Name: BUSSELTON AERO Lat: -33.69 Lon: 115.40 Height: 16.3 m
Data from the previous 72 hours. | See also: Recent months at Busselton Airport
Date/Time
WST
Temp
°C
App
Temp
°C
Dew
Point
Rel
Hum
%
Delta-T
°C
Wind Press
QNH
hPa
Press
MSL
hPa
Rain
since 9 am
mm
Dir
 
Spd
km/h
Gust
km/h
Spd
kts
Gust
kts
21/03:30pm 13.5 7.4 9.8 78 1.9 SSW 32 41 17 22 1007.6 1007.6 13.0
21/03:00pm 13.0 7.7 11.1 88 1.0 SSW 30 43 16 23 1007.7 1007.7 13.0
21/02:30pm 13.5 9.5 11.9 90 0.9 SSW 24 33 13 18 1006.6 1006.6 13.0
21/02:00pm 13.2 10.7 12.3 94 0.5 SSW 17 24 9 13 1006.2 1006.2 12.4
21/01:30pm 13.5 13.0 12.6 94 0.5 NE 7 9 4 5 1005.4 1005.4 11.4
21/01:00pm 13.5 14.3 12.6 94 0.5 CALM 0 6 0 3 1005.7 1005.7 10.2
21/12:30pm 13.5 12.5 12.4 93 0.6 N 9 13 5 7 1006.4 1006.4 9.0
21/12:00pm 13.5 12.9 12.2 92 0.7 NNE 7 11 4 6 1006.3 1006.3 7.2
21/11:30am 13.6 13.2 12.5 93 0.6 WSW 6 11 3 6 1004.6 1004.6 5.6
21/11:00am 13.5 13.1 12.4 93 0.6 WSW 6 9 3 5 1005.9 1005.9 3.8
21/10:30am 13.9 13.0 12.6 92 0.7 WSW 9 13 5 7 1004.6 1004.6 2.6
21/10:00am 14.0 11.8 12.1 88 1.0 WSW 15 20 8 11 1004.8 1004.8 1.2
21/09:30am 14.1 10.1 11.8 86 1.2 SW 24 33 13 18 1003.8 1003.8 0.2
21/09:00am 13.7 9.5 12.4 92 0.7 SW 26 32 14 17 1003.8 1003.8 6.4
21/08:30am 14.0 11.1 12.8 92 0.7 WSW 20 32 11 17 1003.1 1003.1 5.6
21/08:08am 17.5 12.5 15.0 85 1.5 N 35 54 19 29 1001.5 1001.5 0.6
21/08:00am 18.0 12.1 14.7 81 1.9 NNE 39 54 21 29 1000.4 1000.4 0.0
21/07:45am 18.6 13.2 15.1 80 2.0 NNE 37 56 20 30 1000.3 1000.3 0.0
21/07:30am 18.1 13.5 15.2 83 1.7 NNE 33 48 18 26 1000.9 1000.9 0.0
21/07:00am 17.8 13.3 15.3 85 1.5 NNE 33 44 18 24 1001.4 1001.4 0.0
21/06:30am 17.8 13.5 15.8 88 1.2 NNE 33 46 18 25 1001.8 1001.8 0.0
21/06:00am 18.1 14.6 16.4 90 1.0 NNE 30 41 16 22 1002.0 1002.0 0.0
21/05:30am 18.0 14.5 15.5 85 1.5 NNE 28 37 15 20 1002.3 1002.3 0.0
21/05:00am 18.5 13.5 15.0 80 2.1 N 35 46 19 25 1002.2 1002.2 0.0
21/04:30am 18.6 13.2 14.9 79 2.2 N 37 50 20 27 1002.6 1002.6 0.0
21/04:10am 19.0 13.9 14.9 77 2.4 N 35 54 19 29 1002.5 1002.5 0.0
21/04:00am 18.6 15.0 15.3 81 1.9 N 28 39 15 21 1002.6 1002.6 0.0
21/03:30am 18.3 14.8 16.5 89 1.1 N 30 43 16 23 1003.3 1003.3 0.0
21/03:00am 17.9 15.6 16.6 92 0.8 N 24 32 13 17 1003.7 1003.7 0.0
21/02:30am 17.5 15.9 16.4 93 0.7 N 20 28 11 15 1004.4 1004.4 0.0
21/02:00am 17.7 15.4 16.6 93 0.7 N 24 32 13 17 1005.0 1005.0 0.0
21/01:30am 17.9 15.2 16.6 92 0.8 N 26 33 14 18 1005.9 1005.9 0.0
21/01:00am 17.9 15.1 16.3 90 1.0 N 26 37 14 20 1006.5 1006.5 0.0
21/12:30am 18.0 14.7 16.0 88 1.2 N 28 35 15 19 1007.1 1007.1 0.0
21/12:00am 18.2 15.1 15.7 85 1.5 N 26 33 14 18 1007.3 1007.3 0.0
 
Date/Time
WST
Temp
°C
App
Temp
°C
Dew
Point
Rel
Hum
%
Delta-T
°C
Wind Press
QNH
hPa
Press
MSL
hPa
Rain
since 9 am
mm
Dir
 
Spd
km/h
Gust
km/h
Spd
kts
Gust
kts
20/11:30pm 18.5 15.6 15.0 80 2.0 N 24 35 13 19 1007.8 1007.8 0.0
20/11:05pm 18.9 15.1 14.8 77 2.4 N 28 46 15 25 1008.4 1008.4 0.0
20/11:00pm 19.0 14.9 14.9 77 2.4 N 30 46 16 25 1008.6 1008.6 0.0
20/10:30pm 18.9 15.3 15.2 79 2.2 N 28 37 15 20 1008.9 1008.9 0.0
20/10:00pm 18.5 15.5 16.9 90 1.0 N 28 37 15 20 1009.2 1009.2 0.0
20/09:30pm 18.7 16.8 17.6 93 0.7 N 24 32 13 17 1009.7 1009.7 0.0
20/09:00pm 18.4 15.9 17.1 92 0.8 N 26 35 14 19 1010.1 1010.1 0.0
20/08:30pm 18.5 17.2 17.2 92 0.8 N 20 30 11 16 1010.2 1010.2 0.0
20/08:00pm 18.2 17.2 16.5 90 1.0 N 17 20 9 11 1009.9 1009.9 0.0
20/07:30pm 18.9 18.3 16.7 87 1.3 N 15 17 8 9 1010.1 1010.1 0.0
20/07:00pm 18.8 17.8 15.7 82 1.8 N 15 20 8 11 1009.5 1009.5 0.0
20/06:30pm 18.8 16.7 14.7 77 2.4 NNE 19 24 10 13 1009.5 1009.5 0.0
20/06:00pm 20.0 18.0 14.0 68 3.5 NNW 17 22 9 12 1008.0 1008.0 0.0
20/05:30pm 21.7 18.0 12.6 56 5.2 NW 24 32 13 17 1007.9 1007.9 0.0
20/05:00pm 22.8 20.4 12.8 53 5.7 N 17 24 9 13 1007.6 1007.6 0.0
20/04:30pm 23.0 20.5 13.5 55 5.5 NNW 19 22 10 12 1008.0 1008.0 0.0
20/04:00pm 23.1 20.2 15.2 61 4.7 NNW 24 30 13 16 1008.3 1008.3 0.0
20/03:30pm 23.6 20.6 15.9 62 4.7 NNW 26 35 14 19 1008.4 1008.4 0.0
20/03:00pm 26.9 22.9 12.9 42 8.2 N 26 35 14 19 1008.1 1008.1 0.0
20/02:30pm 27.5 22.5 11.1 36 9.3 NNE 28 41 15 22 1008.2 1008.2 0.0
20/02:00pm 27.4 22.6 11.8 38 9.0 NNE 28 37 15 20 1008.7 1008.7 0.0
20/01:30pm 27.5 23.7 12.3 39 8.8 N 24 33 13 18 1009.1 1009.1 0.0
20/01:00pm 27.0 21.7 11.1 37 9.0 N 30 43 16 23 1009.4 1009.4 0.0
20/12:30pm 26.9 21.9 12.2 40 8.5 N 30 41 16 22 1010.0 1010.0 0.0
20/12:00pm 25.9 20.3 12.0 42 8.0 NNE 33 44 18 24 1010.6 1010.6 0.0
20/11:30am 24.8 19.7 11.8 44 7.4 NNE 30 46 16 25 1011.1 1011.1 0.0
20/11:00am 24.3 19.0 12.6 48 6.7 NNE 32 41 17 22 1011.6 1011.6 0.0
20/10:30am 23.9 20.2 12.6 49 6.5 NNE 24 33 13 18 1012.3 1012.3 0.0
20/10:00am 23.2 18.4 11.6 48 6.5 NE 28 35 15 19 1012.6 1012.6 0.0
20/09:30am 22.0 17.6 11.7 52 5.8 NE 26 39 14 21 1013.1 1013.1 0.0
20/09:00am 20.3 16.5 12.3 60 4.5 ENE 24 32 13 17 1013.5 1013.5 0.0
20/08:30am 19.0 15.2 12.3 65 3.7 ENE 24 32 13 17 1013.8 1013.8 0.0
20/08:00am 17.0 14.0 12.1 73 2.7 ENE 19 24 10 13 1014.3 1014.3 0.0
20/07:30am 15.4 13.1 11.8 79 1.9 ENE 15 19 8 10 1014.6 1014.6 0.0
20/07:00am 14.1 12.0 11.3 83 1.5 ENE 13 17 7 9 1014.9 1014.9 0.0
20/06:30am 13.3 10.8 10.9 85 1.3 ENE 15 20 8 11 1014.9 1014.9 0.0
20/06:00am 13.3 10.0 10.8 85 1.3 E 19 26 10 14 1014.9 1014.9 0.0
20/05:30am 13.2 9.8 11.1 87 1.1 E 20 26 11 14 1015.0 1015.0 0.0
20/05:00am 13.3 10.1 11.2 87 1.1 E 19 26 10 14 1015.3 1015.3 0.0
20/04:30am 13.2 10.1 11.5 89 0.9 E 19 22 10 12 1015.4 1015.4 0.0
20/04:00am 12.9 10.7 12.0 94 0.5 ENE 15 20 8 11 1015.9 1015.9 0.0
20/03:30am 12.9 10.4 12.4 97 0.3 E 17 19 9 10 1016.3 1016.3 0.0
20/03:00am 10.4 8.0 10.0 97 0.2 E 13 17 7 9 1016.7 1016.7 0.0
20/02:30am 11.9 11.1 11.6 98 0.2 ESE 7 9 4 5 1017.1 1017.1 0.0
20/02:00am 11.5 10.5 11.1 97 0.2 ESE 7 9 4 5 1017.8 1017.8 0.0
20/01:30am 13.1 12.7 13.0 99 0.1 SSE 7 7 4 4 1017.9 1017.9 0.0
20/01:00am 12.1 11.0 11.9 99 0.1 SE 9 11 5 6 1017.9 1017.9 0.0
20/12:30am 11.4 10.5 11.3 99 0.1 ESE 7 9 4 5 1018.3 1018.3 0.0
20/12:00am 10.6 9.4 10.3 98 0.2 SE 7 7 4 4 1018.7 1018.7 0.0
 
Date/Time
WST
Temp
°C
App
Temp
°C
Dew
Point
Rel
Hum
%
Delta-T
°C
Wind Press
QNH
hPa
Press
MSL
hPa
Rain
since 9 am
mm
Dir
 
Spd
km/h
Gust
km/h
Spd
kts
Gust
kts
19/11:30pm 12.4 13.1 12.3 99 0.1 CALM 0 0 0 0 1019.3 1019.3 0.0
19/11:00pm 12.0 12.6 11.9 99 0.1 CALM 0 0 0 0 1019.6 1019.6 0.0
19/10:30pm 12.2 11.7 12.0 99 0.1 SE 6 7 3 4 1019.9 1019.9 0.0
19/10:00pm 11.5 10.2 11.1 97 0.2 ESE 9 9 5 5 1020.3 1020.3 0.0
19/09:30pm 12.4 11.7 12.0 97 0.2 ESE 7 9 4 5 1020.7 1020.7 0.0
19/09:00pm 12.3 11.7 11.7 96 0.3 SE 6 7 3 4 1020.8 1020.8 0.0
19/08:30pm 12.6 11.8 11.8 95 0.4 SSE 7 9 4 5 1020.7 1020.7 0.0
19/08:00pm 13.1 12.4 12.0 93 0.6 SSE 7 9 4 5 1020.7 1020.7 0.0
19/07:30pm 14.8 16.0 13.7 93 0.6 CALM 0 0 0 0 1020.6 1020.6 0.0
19/07:00pm 14.7 15.6 12.8 88 1.0 CALM 0 0 0 0 1020.8 1020.8 0.0
19/06:30pm 16.9 17.3 14.7 87 1.3 WNW 6 7 3 4 1020.6 1020.6 0.0
19/06:00pm 17.2 16.6 14.5 84 1.5 NW 11 13 6 7 1020.4 1020.4 0.0
19/05:30pm 18.3 17.5 15.0 81 1.9 NNW 13 15 7 8 1020.3 1020.3 0.0
19/05:00pm 18.8 17.4 14.5 76 2.5 NNW 15 17 8 9 1020.1 1020.1 0.0
19/04:30pm 19.8 18.3 14.2 70 3.2 NNW 15 19 8 10 1020.0 1020.0 0.0
19/04:00pm 20.3 19.0 13.8 66 3.7 NNW 13 17 7 9 1020.2 1020.2 0.0
19/03:30pm 20.5 18.3 13.2 63 4.2 NNW 17 20 9 11 1020.1 1020.1 0.0
19/03:00pm 20.9 18.6 13.1 61 4.4 NNW 17 20 9 11 1020.2 1020.2 0.0
19/02:30pm 20.8 18.4 12.8 60 4.5 NNW 17 22 9 12 1020.3 1020.3 0.0
19/02:00pm 20.7 17.9 11.4 55 5.1 NNW 17 20 9 11 1020.5 1020.5 0.0
19/01:30pm 21.5 19.4 11.3 52 5.7 N 13 17 7 9 1020.6 1020.6 0.0
19/01:00pm 20.8 18.9 13.0 61 4.4 N 15 19 8 10 1021.0 1021.0 0.0
19/12:30pm 20.7 19.2 13.2 62 4.3 N 13 19 7 10 1021.4 1021.4 0.0
19/12:00pm 20.7 19.3 14.4 67 3.7 N 15 20 8 11 1021.5 1021.5 0.0
19/11:30am 20.6 19.1 14.1 66 3.8 NNW 15 20 8 11 1021.6 1021.6 0.0
19/11:00am 20.3 19.4 13.8 66 3.7 NE 11 17 6 9 1021.8 1021.8 0.0
19/10:30am 20.3 20.0 12.8 62 4.2 N 6 11 3 6 1022.1 1022.1 0.0
19/10:00am 19.4 18.8 12.4 64 3.9 ENE 7 11 4 6 1022.3 1022.3 0.0
19/09:30am 18.9 18.6 12.7 67 3.5 ENE 6 11 3 6 1022.5 1022.6 0.0
19/09:00am 17.7 17.1 12.4 71 2.9 SE 7 11 4 6 1022.6 1022.7 0.0
19/08:30am 17.3 18.5 15.8 91 0.9 ESE 4 7 2 4 1022.4 1022.4 0.0
19/08:00am 15.4 15.8 15.3 99 0.1 E 7 11 4 6 1022.1 1022.1 0.0
19/07:30am 14.1 15.4 14.0 99 0.1 CALM 0 0 0 0 1021.8 1021.8 0.0
19/07:00am 13.5 13.4 13.4 99 0.1 ENE 6 7 3 4 1021.6 1021.6 0.0
19/06:30am 12.7 12.4 12.6 99 0.1 ESE 6 7 3 4 1021.3 1021.3 0.0
19/06:00am 11.9 11.1 11.8 99 0.1 SE 7 9 4 5 1021.1 1021.1 0.0
19/05:30am 10.8 9.9 10.7 99 0.1 ESE 6 7 3 4 1020.9 1020.9 0.0
19/05:00am 11.4 10.5 11.3 99 0.1 ESE 7 9 4 5 1020.4 1020.4 0.0
19/04:30am 12.3 11.8 12.2 99 0.1 E 6 7 3 4 1020.2 1020.2 0.0
19/04:00am 12.0 11.5 11.9 99 0.1 E 6 6 3 3 1019.9 1019.9 0.0
19/03:30am 11.7 10.9 11.6 99 0.1 E 7 9 4 5 1019.8 1019.8 0.0
19/03:00am 11.4 10.5 11.3 99 0.1 ENE 7 9 4 5 1019.9 1019.9 0.0
19/02:30am 10.9 9.8 10.8 99 0.1 E 7 9 4 5 1020.0 1020.0 0.0
19/02:00am 9.3 7.4 9.0 98 0.1 ESE 9 11 5 6 1020.3 1020.3 0.0
19/01:30am 9.2 7.6 8.8 97 0.2 E 7 9 4 5 1020.2 1020.2 0.0
19/01:00am 9.4 7.5 9.0 97 0.2 E 9 11 5 6 1020.1 1020.1 0.0
19/12:30am 9.6 7.7 9.0 96 0.3 ESE 9 11 5 6 1020.3 1020.3 0.0
19/12:00am 9.6 7.7 9.0 96 0.3 E 9 11 5 6 1020.3 1020.3 0.0
 
Date/Time
WST
Temp
°C
App
Temp
°C
Dew
Point
Rel
Hum
%
Delta-T
°C
Wind Press
QNH
hPa
Press
MSL
hPa
Rain
since 9 am
mm
Dir
 
Spd
km/h
Gust
km/h
Spd
kts
Gust
kts
18/11:30pm 9.7 7.8 9.0 95 0.3 ENE 9 13 5 7 1020.2 1020.2 0.0
18/11:00pm 10.2 8.4 9.3 94 0.4 E 9 11 5 6 1020.4 1020.4 0.0
18/10:30pm 10.9 10.2 9.9 93 0.5 ESE 4 9 2 5 1020.4 1020.4 0.0
18/10:00pm 10.6 9.7 9.2 91 0.7 W 4 7 2 4 1020.6 1020.6 0.0
18/09:30pm 9.9 8.2 8.2 89 0.8 ENE 7 9 4 5 1020.5 1020.5 0.0
18/09:00pm 11.8 11.8 9.9 88 1.0 CALM 0 0 0 0 1020.2 1020.2 0.0
18/08:30pm 11.9 11.8 9.6 86 1.2 CALM 0 0 0 0 1020.1 1020.1 0.0
18/08:00pm 13.4 13.6 10.4 82 1.6 CALM 0 0 0 0 1019.8 1019.8 0.0
18/07:30pm 14.6 13.7 10.8 78 2.0 SW 6 7 3 4 1019.8 1019.8 0.0
18/07:00pm 15.2 13.8 11.0 76 2.2 W 9 13 5 7 1019.1 1019.1 0.0
18/06:30pm 15.8 13.7 11.0 73 2.6 WSW 13 17 7 9 1018.4 1018.4 0.0
18/06:00pm 17.0 14.5 10.9 67 3.3 WSW 15 20 8 11 1018.3 1018.3 0.0
18/05:30pm 18.2 15.2 10.8 62 4.0 WSW 17 20 9 11 1018.0 1018.0 0.0
18/05:00pm 19.2 15.8 10.5 57 4.7 WSW 19 26 10 14 1017.8 1017.8 0.0
18/04:30pm 20.0 16.4 10.4 54 5.2 WSW 20 28 11 15 1017.4 1017.4 0.0
18/04:00pm 20.4 17.2 11.1 55 5.1 WSW 19 26 10 14 1017.0 1017.0 0.0

Other Formats:

Comma delimited format used in spreadsheet applications
http://www.bom.gov.au/fwo/IDW60801/IDW60801.95611.axf

JavaScript Object Notation format (JSON) in row-major order
http://www.bom.gov.au/fwo/IDW60801/IDW60801.95611.json